Chadwick, Illinois
Current Conditions -  °F | °C
As of 12:55 AM on Thursday 27 Nov 2014 (Local Time) from KSFY Reporting Station
Haze Haze  
Wind Chill: 17°   Ceiling: 4100
Heat Index: 24°   Visibility: 5mi
Dew Point: 20°   Wind: 6mph
Humidity: 84%   Direction: 310°NW
Pressure: 30.28"   Gusts: NA
Location:  42.01°N, 89.89°W
Report Text: KSFY 270655Z AUTO 31005KT 5SM BR BKN041 OVC050 M04/M07 A3028 RMK AO2 T10451068
Loading
Personal Weather Stations






























Interactive Weather Map New forecast layout! Learn more

10-Day Weather Forecast

Advertisements
Track Severe Weather on mobile